Time,TemperatureF,DewpointF,PressureIn,WindDirection,WindDirectionDegrees,WindSpeedMPH,WindSpeedGustMPH,Humidity,HourlyPrecipIn,Conditions,Clouds,dailyrainin,SolarRadiationWatts/m^2,SoftwareType,DateUTC
2013-02-28 00:11:00,36.0,4.0,-100.00,SW,233,6.0,8.0,25,0.00,,,0.00,0.000000,,2013-02-28 08:11:00,
2013-02-28 00:21:00,36.0,4.0,-100.00,SW,233,6.0,8.0,25,0.00,,,0.00,0.000000,,2013-02-28 08:21:00,
2013-02-28 00:32:00,36.0,4.0,-100.00,SW,233,6.0,8.0,25,0.00,,,0.00,0.000000,,2013-02-28 08:32:00,
2013-02-28 00:41:00,36.0,4.0,-100.00,SW,233,6.0,8.0,25,0.00,,,0.00,0.000000,,2013-02-28 08:41:00,
2013-02-28 01:11:00,37.0,4.0,-100.00,WNW,282,0.0,10.0,25,0.00,,,0.00,0.000000,,2013-02-28 09:11:00,
2013-02-28 01:21:00,37.0,4.0,-100.00,WNW,282,0.0,10.0,25,0.00,,,0.00,0.000000,,2013-02-28 09:21:00,
2013-02-28 01:31:00,37.0,4.0,-100.00,WNW,282,0.0,10.0,25,0.00,,,0.00,0.000000,,2013-02-28 09:31:00,
2013-02-28 01:41:00,37.0,4.0,-100.00,WNW,282,0.0,10.0,25,0.00,,,0.00,0.000000,,2013-02-28 09:41:00,
2013-02-28 02:11:00,32.0,4.0,-100.00,NW,313,0.0,2.0,30,0.00,,,0.00,0.000000,,2013-02-28 10:11:00,
2013-02-28 02:21:00,32.0,4.0,-100.00,NW,313,0.0,2.0,30,0.00,,,0.00,0.000000,,2013-02-28 10:21:00,
2013-02-28 02:31:00,32.0,4.0,-100.00,NW,313,0.0,2.0,30,0.00,,,0.00,0.000000,,2013-02-28 10:31:00,
2013-02-28 02:42:00,32.0,4.0,-100.00,NW,313,0.0,2.0,30,0.00,,,0.00,0.000000,,2013-02-28 10:42:00,
2013-02-28 03:11:00,29.0,4.0,-100.00,SSW,199,1.0,3.0,33,0.00,,,0.00,0.000000,,2013-02-28 11:11:00,
2013-02-28 03:21:00,29.0,4.0,-100.00,SSW,199,1.0,3.0,33,0.00,,,0.00,0.000000,,2013-02-28 11:21:00,
2013-02-28 03:32:00,29.0,4.0,-100.00,SSW,199,1.0,3.0,33,0.00,,,0.00,0.000000,,2013-02-28 11:32:00,
2013-02-28 03:41:00,29.0,4.0,-100.00,SSW,199,1.0,3.0,33,0.00,,,0.00,0.000000,,2013-02-28 11:41:00,
2013-02-28 04:11:00,33.0,4.0,-100.00,SW,225,6.0,8.0,29,0.00,,,0.00,0.000000,,2013-02-28 12:11:00,
2013-02-28 04:21:00,33.0,4.0,-100.00,SW,225,6.0,8.0,29,0.00,,,0.00,0.000000,,2013-02-28 12:21:00,
2013-02-28 04:32:00,33.0,4.0,-100.00,SW,225,6.0,8.0,29,0.00,,,0.00,0.000000,,2013-02-28 12:32:00,
2013-02-28 04:42:00,33.0,4.0,-100.00,SW,225,6.0,8.0,29,0.00,,,0.00,0.000000,,2013-02-28 12:42:00,
2013-02-28 05:11:00,33.0,8.0,-100.00,South,189,0.0,8.0,34,0.00,,,0.00,0.000000,,2013-02-28 13:11:00,
2013-02-28 06:11:00,31.0,6.0,-100.00,SW,228,0.0,4.0,34,0.00,,,0.00,0.000000,,2013-02-28 14:11:00,
2013-02-28 06:21:00,31.0,6.0,-100.00,SW,228,0.0,4.0,34,0.00,,,0.00,0.000000,,2013-02-28 14:21:00,
2013-02-28 06:32:00,31.0,6.0,-100.00,SW,228,0.0,4.0,34,0.00,,,0.00,0.000000,,2013-02-28 14:32:00,
2013-02-28 06:42:00,31.0,6.0,-100.00,SW,228,0.0,4.0,34,0.00,,,0.00,0.000000,,2013-02-28 14:42:00,
2013-02-28 07:11:00,34.0,9.0,-100.00,West,260,0.0,7.0,35,0.00,,,0.00,3.000000,,2013-02-28 15:11:00,
2013-02-28 08:11:00,40.0,10.0,-100.00,SW,229,5.0,8.0,28,-99.99,,,0.00,69.000000,,2013-02-28 16:11:00,
2013-02-28 08:21:00,40.0,10.0,-100.00,SW,229,5.0,8.0,28,-99.99,,,0.00,69.000000,,2013-02-28 16:21:00,
2013-02-28 09:11:00,48.0,12.0,-100.00,WSW,253,0.0,5.0,23,-99.99,,,0.00,197.000000,,2013-02-28 17:11:00,
2013-02-28 10:11:00,55.0,14.0,-100.00,West,279,4.0,8.0,19,-99.99,,,0.00,461.000000,,2013-02-28 18:11:00,
2013-02-28 10:21:00,55.0,14.0,-100.00,West,279,4.0,8.0,19,-99.99,,,0.00,461.000000,,2013-02-28 18:21:00,
2013-02-28 15:12:00,61.0,-99.9,-100.00,North,-999,-999.0,0.0,-999,-99.99,,,-99.99,0.000000,,2013-02-28 23:12:00,
2013-02-28 15:22:00,61.0,-99.9,-100.00,North,-999,-999.0,0.0,-999,-99.99,,,-99.99,0.000000,,2013-02-28 23:22:00,
2013-02-28 15:32:00,61.0,-99.9,-100.00,North,-999,-999.0,0.0,-999,-99.99,,,-99.99,0.000000,,2013-02-28 23:32:00,
2013-02-28 15:42:00,61.0,-99.9,-100.00,North,-999,-999.0,0.0,-999,-99.99,,,-99.99,0.000000,,2013-02-28 23:42:00,
2013-02-28 16:11:00,64.0,22.0,-100.00,NNE,31,3.0,11.0,20,0.00,,,-99.99,553.000000,,2013-03-01 00:11:00,
2013-02-28 16:22:00,64.0,22.0,-100.00,NNE,31,3.0,11.0,20,0.00,,,-99.99,553.000000,,2013-03-01 00:22:00,
2013-02-28 16:32:00,64.0,22.0,-100.00,NNE,31,3.0,11.0,20,0.00,,,-99.99,553.000000,,2013-03-01 00:32:00,
2013-02-28 16:41:00,64.0,22.0,-100.00,NNE,31,3.0,11.0,20,0.00,,,-99.99,553.000000,,2013-03-01 00:41:00,
2013-02-28 17:11:00,59.0,20.0,-100.00,SE,125,3.0,10.0,22,0.00,,,-99.99,314.000000,,2013-03-01 01:11:00,
2013-02-28 17:21:00,59.0,20.0,-100.00,SE,125,3.0,10.0,22,0.00,,,-99.99,314.000000,,2013-03-01 01:21:00,
2013-02-28 17:31:00,59.0,20.0,-100.00,SE,125,3.0,10.0,22,0.00,,,-99.99,314.000000,,2013-03-01 01:31:00,
2013-02-28 17:42:00,59.0,20.0,-100.00,SE,125,3.0,10.0,22,0.00,,,-99.99,314.000000,,2013-03-01 01:42:00,
2013-02-28 18:11:00,56.0,22.0,-100.00,NE,48,3.0,9.0,26,0.00,,,-99.99,107.000000,,2013-03-01 02:11:00,
2013-02-28 18:21:00,56.0,22.0,-100.00,NE,48,3.0,9.0,26,0.00,,,-99.99,107.000000,,2013-03-01 02:21:00,
2013-02-28 18:31:00,56.0,22.0,-100.00,NE,48,3.0,9.0,26,0.00,,,-99.99,107.000000,,2013-03-01 02:31:00,
2013-02-28 18:42:00,56.0,22.0,-100.00,NE,48,3.0,9.0,26,0.00,,,-99.99,107.000000,,2013-03-01 02:42:00,
2013-02-28 19:11:00,48.0,18.0,-100.00,East,91,4.0,6.0,30,0.00,,,-99.99,1.000000,,2013-03-01 03:11:00,
2013-02-28 19:21:00,48.0,18.0,-100.00,East,91,4.0,6.0,30,0.00,,,-99.99,1.000000,,2013-03-01 03:21:00,
2013-02-28 20:11:00,46.0,19.0,-100.00,West,272,1.0,6.0,33,0.00,,,-99.99,0.000000,,2013-03-01 04:11:00,
2013-02-28 20:21:00,46.0,19.0,-100.00,West,272,1.0,6.0,33,0.00,,,-99.99,0.000000,,2013-03-01 04:21:00,
2013-02-28 20:31:00,46.0,19.0,-100.00,West,272,1.0,6.0,33,0.00,,,-99.99,0.000000,,2013-03-01 04:31:00,
2013-02-28 20:41:00,46.0,19.0,-100.00,West,272,1.0,6.0,33,0.00,,,-99.99,0.000000,,2013-03-01 04:41:00,
2013-02-28 21:11:00,42.0,19.0,-100.00,NW,313,0.0,7.0,40,0.00,,,-99.99,0.000000,,2013-03-01 05:11:00,
2013-02-28 21:22:00,42.0,19.0,-100.00,NW,313,0.0,7.0,40,0.00,,,-99.99,0.000000,,2013-03-01 05:22:00,
2013-02-28 21:32:00,42.0,19.0,-100.00,NW,313,0.0,7.0,40,0.00,,,-99.99,0.000000,,2013-03-01 05:32:00,
2013-02-28 21:41:00,42.0,19.0,-100.00,NW,313,0.0,7.0,40,0.00,,,-99.99,0.000000,,2013-03-01 05:41:00,
2013-02-28 22:11:00,39.0,19.0,-100.00,SSW,204,0.0,3.0,45,0.00,,,-99.99,0.000000,,2013-03-01 06:11:00,
2013-02-28 22:21:00,39.0,19.0,-100.00,SSW,204,0.0,3.0,45,0.00,,,-99.99,0.000000,,2013-03-01 06:21:00,
2013-02-28 22:32:00,39.0,19.0,-100.00,SSW,204,0.0,3.0,45,0.00,,,-99.99,0.000000,,2013-03-01 06:32:00,
2013-02-28 22:42:00,39.0,19.0,-100.00,SSW,204,0.0,3.0,45,0.00,,,-99.99,0.000000,,2013-03-01 06:42:00,
2013-02-28 23:11:00,37.0,19.0,-100.00,SSW,194,0.0,4.0,48,0.00,,,-99.99,0.000000,,2013-03-01 07:11:00,
2013-02-28 23:21:00,37.0,19.0,-100.00,SSW,194,0.0,4.0,48,0.00,,,-99.99,0.000000,,2013-03-01 07:21:00,
2013-02-28 23:32:00,37.0,19.0,-100.00,SSW,194,0.0,4.0,48,0.00,,,-99.99,0.000000,,2013-03-01 07:32:00,
2013-02-28 23:42:00,37.0,19.0,-100.00,SSW,194,0.0,4.0,48,0.00,,,-99.99,0.000000,,2013-03-01 07:42:00,